createdAt,value
2018-12-13T00:00:15.624Z,1017.64
2018-12-13T00:01:15.801Z,1017.62
2018-12-13T00:02:15.890Z,1017.59
2018-12-13T00:03:15.541Z,1017.59
2018-12-13T00:04:15.535Z,1017.61
2018-12-13T00:05:15.570Z,1017.61
2018-12-13T00:06:15.514Z,1017.60
2018-12-13T00:07:15.518Z,1017.59
2018-12-13T00:08:15.506Z,1017.54
2018-12-13T00:09:15.476Z,1017.60
2018-12-13T00:10:15.529Z,1017.52
2018-12-13T00:11:15.521Z,1017.54
2018-12-13T00:12:15.442Z,1017.56
2018-12-13T00:13:15.435Z,1017.54
2018-12-13T00:14:15.610Z,1017.55
2018-12-13T00:15:15.448Z,1017.54
2018-12-13T00:16:15.397Z,1017.48
2018-12-13T00:17:15.387Z,1017.52
2018-12-13T00:18:15.384Z,1017.52
2018-12-13T00:19:15.358Z,1017.51
2018-12-13T00:20:15.395Z,1017.50
2018-12-13T00:21:15.341Z,1017.46
2018-12-13T00:22:15.350Z,1017.52
2018-12-13T00:23:15.328Z,1017.55
2018-12-13T00:24:15.323Z,1017.51
2018-12-13T00:25:15.298Z,1017.56
2018-12-13T00:26:15.306Z,1017.53
2018-12-13T00:27:15.269Z,1017.56
2018-12-13T00:28:15.337Z,1017.53
2018-12-13T00:29:15.267Z,1017.52
2018-12-13T00:30:15.292Z,1017.54
2018-12-13T00:31:15.276Z,1017.59
2018-12-13T00:32:15.215Z,1017.55
2018-12-13T00:33:15.200Z,1017.55
2018-12-13T00:34:15.191Z,1017.53
2018-12-13T00:35:15.210Z,1017.54
2018-12-13T00:36:15.208Z,1017.53
2018-12-13T00:37:15.181Z,1017.49
2018-12-13T00:38:15.153Z,1017.49
2018-12-13T00:39:15.151Z,1017.53
2018-12-13T00:40:15.131Z,1017.49
2018-12-13T00:41:15.137Z,1017.47
2018-12-13T00:42:15.135Z,1017.47
2018-12-13T00:43:15.109Z,1017.49
2018-12-13T00:44:15.109Z,1017.47
2018-12-13T00:45:15.073Z,1017.47
2018-12-13T00:46:15.072Z,1017.50
2018-12-13T00:47:15.080Z,1017.49
2018-12-13T00:48:15.068Z,1017.49
2018-12-13T00:49:15.022Z,1017.51
2018-12-13T00:50:15.019Z,1017.52
2018-12-13T00:51:15.004Z,1017.47
2018-12-13T00:52:15.027Z,1017.46
2018-12-13T00:53:15.047Z,1017.45
2018-12-13T00:54:14.975Z,1017.43
2018-12-13T00:55:14.962Z,1017.47
2018-12-13T00:56:14.951Z,1017.47
2018-12-13T00:57:14.944Z,1017.49
2018-12-13T00:58:14.950Z,1017.40
2018-12-13T00:59:14.920Z,1017.44
2018-12-13T01:00:14.927Z,1017.40
2018-12-13T01:01:14.892Z,1017.42
2018-12-13T01:02:14.926Z,1017.43
2018-12-13T01:03:14.909Z,1017.38
2018-12-13T01:04:14.867Z,1017.38
2018-12-13T01:05:14.861Z,1017.41
2018-12-13T01:06:14.844Z,1017.36
2018-12-13T01:07:14.824Z,1017.43
2018-12-13T01:08:14.875Z,1017.38
2018-12-13T01:09:14.816Z,1017.35
2018-12-13T01:10:14.809Z,1017.31
2018-12-13T01:11:14.790Z,1017.34
2018-12-13T01:12:14.767Z,1017.34
2018-12-13T01:13:14.787Z,1017.33
2018-12-13T01:14:14.752Z,1017.31
2018-12-13T01:15:14.740Z,1017.33
2018-12-13T01:16:14.729Z,1017.23
2018-12-13T01:17:14.715Z,1017.28
2018-12-13T01:18:14.742Z,1017.28
2018-12-13T01:19:14.716Z,1017.27
2018-12-13T01:20:14.684Z,1017.29
2018-12-13T01:21:20.451Z,1017.26
2018-12-13T01:22:15.657Z,1017.25
2018-12-13T01:23:14.647Z,1017.26
2018-12-13T01:24:14.661Z,1017.21
2018-12-13T01:25:14.635Z,1017.25
2018-12-13T01:26:14.632Z,1017.23
2018-12-13T01:27:14.613Z,1017.19
2018-12-13T01:28:14.594Z,1017.23
2018-12-13T01:29:14.736Z,1017.17
2018-12-13T01:30:14.575Z,1017.16
2018-12-13T01:31:14.563Z,1017.19
2018-12-13T01:32:14.549Z,1017.20
2018-12-13T01:33:14.581Z,1017.16
2018-12-13T01:34:14.529Z,1017.15
2018-12-13T01:35:14.639Z,1017.18
2018-12-13T01:36:14.513Z,1017.17
2018-12-13T01:37:14.497Z,1017.17
2018-12-13T01:38:14.496Z,1017.16
2018-12-13T01:39:14.468Z,1017.17
2018-12-13T01:40:14.605Z,1017.19
2018-12-13T01:41:14.484Z,1017.15
2018-12-13T01:42:14.440Z,1017.16
2018-12-13T01:43:14.486Z,1017.18
2018-12-13T01:44:14.425Z,1017.14
2018-12-13T01:45:14.434Z,1017.09
2018-12-13T01:46:14.394Z,1017.12
2018-12-13T01:47:14.439Z,1017.17
2018-12-13T01:48:14.374Z,1017.15
2018-12-13T01:49:14.366Z,1017.17
2018-12-13T01:50:14.398Z,1017.13
2018-12-13T01:51:14.364Z,1017.13
2018-12-13T01:52:14.325Z,1017.13
2018-12-13T01:53:14.313Z,1017.09
2018-12-13T01:54:14.315Z,1017.10
2018-12-13T01:55:14.305Z,1017.10
2018-12-13T01:56:14.343Z,1017.06
2018-12-13T01:57:14.276Z,1017.09
2018-12-13T01:58:14.273Z,1017.10
2018-12-13T01:59:14.250Z,1017.09
2018-12-13T02:00:14.239Z,1017.06
2018-12-13T02:01:14.353Z,1017.06
2018-12-13T02:02:14.213Z,1017.04
2018-12-13T02:03:14.207Z,1017.04
2018-12-13T02:04:14.230Z,1017.05
2018-12-13T02:05:14.180Z,1017.06
2018-12-13T02:06:14.203Z,1017.07
2018-12-13T02:07:14.164Z,1017.11
2018-12-13T02:08:14.192Z,1017.04
2018-12-13T02:09:14.145Z,1017.07
2018-12-13T02:10:14.131Z,1017.05
2018-12-13T02:11:14.150Z,1017.06
2018-12-13T02:12:14.113Z,1017.05
2018-12-13T02:13:14.095Z,1017.05
2018-12-13T02:14:14.085Z,1017.00
2018-12-13T02:15:14.074Z,1017.02
2018-12-13T02:16:14.087Z,1016.97
2018-12-13T02:17:14.052Z,1017.00
2018-12-13T02:18:14.046Z,1017.00
2018-12-13T02:19:14.038Z,1016.95
2018-12-13T02:20:14.017Z,1016.99
2018-12-13T02:21:14.007Z,1017.02
2018-12-13T02:22:14.022Z,1016.96
2018-12-13T02:23:13.985Z,1016.99
2018-12-13T02:24:13.973Z,1016.93
2018-12-13T02:25:13.985Z,1016.96
2018-12-13T02:26:13.949Z,1016.95
2018-12-13T02:27:13.973Z,1016.96
2018-12-13T02:28:13.922Z,1016.94
2018-12-13T02:29:13.939Z,1016.90
2018-12-13T02:30:13.911Z,1016.89
2018-12-13T02:31:13.893Z,1016.90
2018-12-13T02:32:13.884Z,1016.88
2018-12-13T02:33:14.011Z,1016.89
2018-12-13T02:34:13.861Z,1016.85
2018-12-13T02:35:13.849Z,1016.87
2018-12-13T02:36:13.840Z,1016.86
2018-12-13T02:37:13.833Z,1016.89
2018-12-13T02:38:13.839Z,1016.86
2018-12-13T02:39:13.807Z,1016.89
2018-12-13T02:40:13.798Z,1016.94
2018-12-13T02:41:13.789Z,1016.87
2018-12-13T02:42:13.775Z,1016.89
2018-12-13T02:43:13.794Z,1016.90
2018-12-13T02:44:13.749Z,1016.86
2018-12-13T02:45:13.743Z,1016.86
2018-12-13T02:46:13.739Z,1016.83
2018-12-13T02:47:13.721Z,1016.80
2018-12-13T02:48:13.829Z,1016.79
2018-12-13T02:49:13.723Z,1016.75
2018-12-13T02:50:13.680Z,1016.77
2018-12-13T02:51:13.673Z,1016.78
2018-12-13T02:52:13.678Z,1016.77
2018-12-13T02:53:13.677Z,1016.73
2018-12-13T02:54:13.639Z,1016.74
2018-12-13T02:55:13.634Z,1016.75
2018-12-13T02:56:13.617Z,1016.77
2018-12-13T02:57:13.604Z,1016.72
2018-12-13T02:58:13.595Z,1016.78
2018-12-13T02:59:13.607Z,1016.79
2018-12-13T03:00:13.576Z,1016.75
2018-12-13T03:01:13.569Z,1016.76
2018-12-13T03:02:13.553Z,1016.80
2018-12-13T03:03:13.537Z,1016.73
2018-12-13T03:04:13.555Z,1016.70
2018-12-13T03:05:13.545Z,1016.74
2018-12-13T03:06:13.512Z,1016.75
2018-12-13T03:07:14.304Z,1016.75
2018-12-13T03:08:13.491Z,1016.75
2018-12-13T03:09:13.507Z,1016.72
2018-12-13T03:10:13.497Z,1016.75
2018-12-13T03:11:13.457Z,1016.66
2018-12-13T03:12:13.444Z,1016.65
2018-12-13T03:13:13.450Z,1016.75
2018-12-13T03:14:13.454Z,1016.73
2018-12-13T03:15:13.414Z,1016.71
2018-12-13T03:16:13.398Z,1016.72
2018-12-13T03:17:13.385Z,1016.76
2018-12-13T03:18:13.390Z,1016.78
2018-12-13T03:19:13.387Z,1016.78
2018-12-13T03:20:13.383Z,1016.73
2018-12-13T03:21:13.343Z,1016.84
2018-12-13T03:22:13.338Z,1016.76
2018-12-13T03:23:13.319Z,1016.78
2018-12-13T03:24:13.362Z,1016.75
2018-12-13T03:25:13.326Z,1016.80
2018-12-13T03:26:13.289Z,1016.78
2018-12-13T03:27:13.284Z,1016.79
2018-12-13T03:28:13.274Z,1016.70
2018-12-13T03:29:13.253Z,1016.78
2018-12-13T03:30:13.292Z,1016.75
2018-12-13T03:31:13.343Z,1016.79
2018-12-13T03:32:13.241Z,1016.71
2018-12-13T03:33:13.251Z,1016.68
2018-12-13T03:34:13.233Z,1016.63
2018-12-13T03:35:13.373Z,1016.68
2018-12-13T03:36:13.204Z,1016.68
2018-12-13T03:37:20.370Z,1016.65
2018-12-13T03:38:14.163Z,1016.64
2018-12-13T03:39:13.144Z,1016.60
2018-12-13T03:40:13.163Z,1016.68
2018-12-13T03:41:13.306Z,1016.61
2018-12-13T03:42:13.111Z,1016.61
2018-12-13T03:43:13.104Z,1016.61
2018-12-13T03:44:13.093Z,1016.58
2018-12-13T03:45:13.090Z,1016.52
2018-12-13T03:46:13.112Z,1016.47
2018-12-13T03:47:13.060Z,1016.50
2018-12-13T03:48:13.050Z,1016.51
2018-12-13T03:49:13.050Z,1016.54
2018-12-13T03:50:13.023Z,1016.55
2018-12-13T03:51:13.023Z,1016.55
2018-12-13T03:52:13.165Z,1016.55
2018-12-13T03:53:13.007Z,1016.54
2018-12-13T03:54:12.985Z,1016.55
2018-12-13T03:55:12.977Z,1016.54
2018-12-13T03:56:12.967Z,1016.55
2018-12-13T03:57:12.981Z,1016.52
2018-12-13T03:58:12.948Z,1016.52
2018-12-13T03:59:12.927Z,1016.52
2018-12-13T04:00:12.915Z,1016.50
2018-12-13T04:01:12.924Z,1016.46
2018-12-13T04:02:12.942Z,1016.44
2018-12-13T04:03:12.917Z,1016.38
2018-12-13T04:04:12.878Z,1016.43
2018-12-13T04:05:12.864Z,1016.48
2018-12-13T04:06:12.852Z,1016.52
2018-12-13T04:07:12.876Z,1016.52
2018-12-13T04:08:12.831Z,1016.48
2018-12-13T04:09:12.830Z,1016.49
2018-12-13T04:10:12.804Z,1016.47
2018-12-13T04:11:12.838Z,1016.47
2018-12-13T04:12:12.810Z,1016.45
2018-12-13T04:13:12.785Z,1016.43
2018-12-13T04:14:12.793Z,1016.46
2018-12-13T04:15:12.765Z,1016.37
2018-12-13T04:16:12.738Z,1016.41
2018-12-13T04:17:12.774Z,1016.41
2018-12-13T04:18:12.719Z,1016.40
2018-12-13T04:19:12.710Z,1016.41
2018-12-13T04:20:12.706Z,1016.44
2018-12-13T04:21:12.687Z,1016.39
2018-12-13T04:22:12.678Z,1016.36
2018-12-13T04:23:12.694Z,1016.40
2018-12-13T04:24:12.654Z,1016.36
2018-12-13T04:25:12.639Z,1016.39
2018-12-13T04:26:12.631Z,1016.42
2018-12-13T04:27:12.627Z,1016.36
2018-12-13T04:28:12.640Z,1016.39
2018-12-13T04:29:12.595Z,1016.37
2018-12-13T04:30:12.618Z,1016.37
2018-12-13T04:31:12.579Z,1016.34
2018-12-13T04:32:12.564Z,1016.30
2018-12-13T04:33:12.585Z,1016.31
2018-12-13T04:34:12.541Z,1016.29
2018-12-13T04:35:12.551Z,1016.29
2018-12-13T04:36:13.490Z,1016.29
2018-12-13T04:37:12.511Z,1016.28
2018-12-13T04:38:12.527Z,1016.29
2018-12-13T04:39:12.487Z,1016.31
2018-12-13T04:40:12.499Z,1016.32
2018-12-13T04:41:12.569Z,1016.31
2018-12-13T04:42:12.465Z,1016.30
2018-12-13T04:43:12.451Z,1016.32
2018-12-13T04:44:12.461Z,1016.32
2018-12-13T04:45:12.458Z,1016.32
2018-12-13T04:46:12.420Z,1016.34
2018-12-13T04:47:12.403Z,1016.32
2018-12-13T04:48:12.417Z,1016.34
2018-12-13T04:49:12.382Z,1016.30
2018-12-13T04:50:12.373Z,1016.33
2018-12-13T04:51:12.357Z,1016.33
2018-12-13T04:52:12.345Z,1016.25
2018-12-13T04:53:12.337Z,1016.25
2018-12-13T04:54:12.356Z,1016.23
2018-12-13T04:55:12.340Z,1016.22
2018-12-13T04:56:12.745Z,1016.18
2018-12-13T04:57:12.292Z,1016.23
2018-12-13T04:58:12.309Z,1016.18
2018-12-13T04:59:12.290Z,1016.21
2018-12-13T05:00:12.256Z,1016.21
2018-12-13T05:01:12.249Z,1016.21
2018-12-13T05:02:12.235Z,1016.22
2018-12-13T05:03:12.226Z,1016.20
2018-12-13T05:04:12.247Z,1016.23
2018-12-13T05:05:12.201Z,1016.23
2018-12-13T05:06:12.203Z,1016.21
2018-12-13T05:07:12.182Z,1016.23
2018-12-13T05:08:12.172Z,1016.22
2018-12-13T05:09:12.194Z,1016.22
2018-12-13T05:10:12.152Z,1016.23
2018-12-13T05:11:12.137Z,1016.26
2018-12-13T05:12:12.155Z,1016.19
2018-12-13T05:13:12.134Z,1016.20
2018-12-13T05:14:12.112Z,1016.18
2018-12-13T05:15:12.094Z,1016.19
2018-12-13T05:16:12.107Z,1016.18
2018-12-13T05:17:12.101Z,1016.16
2018-12-13T05:18:12.067Z,1016.14
2018-12-13T05:19:12.056Z,1016.14
2018-12-13T05:20:12.067Z,1016.14
2018-12-13T05:21:12.034Z,1016.11
2018-12-13T05:22:12.023Z,1016.10
2018-12-13T05:23:12.031Z,1016.06
2018-12-13T05:24:12.002Z,1016.07
2018-12-13T05:25:12.063Z,1016.06
2018-12-13T05:26:11.973Z,1016.07
2018-12-13T05:27:11.967Z,1016.06
2018-12-13T05:28:11.964Z,1016.11
2018-12-13T05:29:11.980Z,1016.11
2018-12-13T05:30:11.941Z,1016.09
2018-12-13T05:31:11.920Z,1016.09
2018-12-13T05:32:11.909Z,1016.07
2018-12-13T05:33:11.900Z,1016.06
2018-12-13T05:34:11.895Z,1016.04
2018-12-13T05:35:11.930Z,1016.05
2018-12-13T05:36:11.893Z,1016.05
2018-12-13T05:37:11.859Z,1016.03
2018-12-13T05:38:11.861Z,1015.98
2018-12-13T05:39:11.834Z,1016.01
2018-12-13T05:40:11.824Z,1016.08
2018-12-13T05:41:11.999Z,1016.00
2018-12-13T05:42:11.805Z,1016.01
2018-12-13T05:43:11.802Z,1016.02
2018-12-13T05:44:11.887Z,1016.02
2018-12-13T05:45:11.774Z,1015.99
2018-12-13T05:46:11.786Z,1015.94
2018-12-13T05:47:11.749Z,1015.95
2018-12-13T05:48:11.748Z,1015.95
2018-12-13T05:49:11.734Z,1015.98
2018-12-13T05:50:11.745Z,1015.99
2018-12-13T05:51:11.705Z,1016.00
2018-12-13T05:52:11.766Z,1015.96
2018-12-13T05:53:11.682Z,1015.95
2018-12-13T05:54:11.676Z,1015.97
2018-12-13T05:55:11.660Z,1015.97
2018-12-13T05:56:11.652Z,1015.94
2018-12-13T05:57:11.668Z,1015.96
2018-12-13T05:58:11.632Z,1015.99
2018-12-13T05:59:11.617Z,1016.00
2018-12-13T06:00:11.621Z,1016.03
2018-12-13T06:01:11.595Z,1016.01
2018-12-13T06:02:11.632Z,1015.99
2018-12-13T06:03:11.594Z,1016.04
2018-12-13T06:04:11.567Z,1016.02
2018-12-13T06:05:11.558Z,1016.05
2018-12-13T06:06:11.565Z,1016.04
2018-12-13T06:07:11.646Z,1016.02
2018-12-13T06:08:11.520Z,1016.04
2018-12-13T06:09:11.508Z,1016.05
2018-12-13T06:10:11.504Z,1016.01
2018-12-13T06:11:11.493Z,1016.08
2018-12-13T06:12:11.509Z,1016.10
2018-12-13T06:13:11.503Z,1016.06
2018-12-13T06:14:11.465Z,1016.04
2018-12-13T06:15:11.446Z,1016.08
2018-12-13T06:16:11.435Z,1016.11
2018-12-13T06:17:11.460Z,1016.14
2018-12-13T06:18:11.413Z,1016.13
2018-12-13T06:19:11.399Z,1016.10
2018-12-13T06:20:11.390Z,1016.11
2018-12-13T06:21:11.917Z,1016.07
2018-12-13T06:22:11.371Z,1016.08
2018-12-13T06:23:11.384Z,1016.12
2018-12-13T06:24:11.345Z,1016.08
2018-12-13T06:25:11.340Z,1016.13
2018-12-13T06:26:11.326Z,1016.13
2018-12-13T06:27:11.317Z,1016.08
2018-12-13T06:28:11.341Z,1016.11
2018-12-13T06:29:11.293Z,1016.14
2018-12-13T06:30:11.285Z,1016.14
2018-12-13T06:31:11.274Z,1016.18
2018-12-13T06:32:11.295Z,1016.20
2018-12-13T06:33:11.247Z,1016.20
2018-12-13T06:34:11.239Z,1016.19
2018-12-13T06:35:11.231Z,1016.21
2018-12-13T06:36:11.215Z,1016.22
2018-12-13T06:37:11.204Z,1016.21
2018-12-13T06:38:11.231Z,1016.22
2018-12-13T06:39:11.185Z,1016.21
2018-12-13T06:40:15.561Z,1016.21
2018-12-13T06:41:11.192Z,1016.27
2018-12-13T06:42:11.154Z,1016.23
2018-12-13T06:43:11.181Z,1016.25
2018-12-13T06:44:11.139Z,1016.30
2018-12-13T06:45:11.121Z,1016.29
2018-12-13T06:46:11.114Z,1016.30
2018-12-13T06:47:11.104Z,1016.33
2018-12-13T06:48:11.186Z,1016.29
2018-12-13T06:49:11.080Z,1016.30
2018-12-13T06:50:11.064Z,1016.29
2018-12-13T06:51:11.062Z,1016.33
2018-12-13T06:52:11.045Z,1016.29
2018-12-13T06:53:11.073Z,1016.23
2018-12-13T06:54:11.022Z,1016.27
2018-12-13T06:55:11.016Z,1016.31
2018-12-13T06:56:11.014Z,1016.27
2018-12-13T06:57:11.014Z,1016.24
2018-12-13T06:58:10.983Z,1016.24
2018-12-13T06:59:10.970Z,1016.28
2018-12-13T07:00:10.962Z,1016.26
2018-12-13T07:01:10.948Z,1016.19
2018-12-13T07:02:10.954Z,1016.26
2018-12-13T07:03:10.957Z,1016.25
2018-12-13T07:04:10.942Z,1016.24
2018-12-13T07:05:10.908Z,1016.26
2018-12-13T07:06:10.900Z,1016.26
2018-12-13T07:07:10.886Z,1016.23
2018-12-13T07:08:10.883Z,1016.26
2018-12-13T07:09:10.926Z,1016.26
2018-12-13T07:10:10.857Z,1016.28
2018-12-13T07:11:10.866Z,1016.32
2018-12-13T07:12:10.831Z,1016.25
2018-12-13T07:13:10.829Z,1016.27
2018-12-13T07:14:10.808Z,1016.30
2018-12-13T07:15:10.812Z,1016.26
2018-12-13T07:16:10.824Z,1016.29
2018-12-13T07:17:10.774Z,1016.30
2018-12-13T07:18:10.764Z,1016.32
2018-12-13T07:19:10.780Z,1016.29
2018-12-13T07:20:10.742Z,1016.32
2018-12-13T07:21:10.729Z,1016.32
2018-12-13T07:22:10.724Z,1016.32
2018-12-13T07:23:10.710Z,1016.33
2018-12-13T07:24:10.723Z,1016.30
2018-12-13T07:25:10.692Z,1016.33
2018-12-13T07:26:10.689Z,1016.36
2018-12-13T07:27:10.684Z,1016.35
2018-12-13T07:28:10.659Z,1016.39
2018-12-13T07:29:10.674Z,1016.42
2018-12-13T07:30:10.650Z,1016.38
2018-12-13T07:31:10.630Z,1016.38
2018-12-13T07:32:10.622Z,1016.41
2018-12-13T07:33:10.604Z,1016.44
2018-12-13T07:34:10.614Z,1016.38
2018-12-13T07:35:10.579Z,1016.38
2018-12-13T07:36:10.569Z,1016.38
2018-12-13T07:37:10.565Z,1016.39
2018-12-13T07:38:14.280Z,1016.36
2018-12-13T07:39:10.598Z,1016.42
2018-12-13T07:40:10.545Z,1016.40
2018-12-13T07:41:10.517Z,1016.42
2018-12-13T07:42:10.505Z,1016.40
2018-12-13T07:43:10.498Z,1016.43
2018-12-13T07:44:10.524Z,1016.37
2018-12-13T07:45:10.500Z,1016.37
2018-12-13T07:46:10.460Z,1016.39
2018-12-13T07:47:10.448Z,1016.40
2018-12-13T07:48:10.449Z,1016.37
2018-12-13T07:49:10.445Z,1016.42
2018-12-13T07:50:10.456Z,1016.38
2018-12-13T07:51:10.409Z,1016.42
2018-12-13T07:52:10.398Z,1016.40
2018-12-13T07:53:10.393Z,1016.42
2018-12-13T07:54:10.390Z,1016.41
2018-12-13T07:55:10.442Z,1016.41
2018-12-13T07:56:10.388Z,1016.42
2018-12-13T07:57:10.344Z,1016.39
2018-12-13T07:58:10.333Z,1016.39
2018-12-13T07:59:10.319Z,1016.43
2018-12-13T08:00:10.309Z,1016.42
2018-12-13T08:01:10.331Z,1016.42
2018-12-13T08:02:10.291Z,1016.45
2018-12-13T08:03:10.288Z,1016.44
2018-12-13T08:04:10.265Z,1016.47
2018-12-13T08:05:10.254Z,1016.45
2018-12-13T08:06:10.280Z,1016.43
2018-12-13T08:07:10.233Z,1016.43
2018-12-13T08:08:10.223Z,1016.46
2018-12-13T08:09:10.212Z,1016.40
2018-12-13T08:10:10.201Z,1016.39
2018-12-13T08:11:10.192Z,1016.37
2018-12-13T08:12:10.209Z,1016.37
2018-12-13T08:13:10.196Z,1016.38
2018-12-13T08:14:10.217Z,1016.42
2018-12-13T08:15:10.154Z,1016.38
2018-12-13T08:16:10.136Z,1016.39
2018-12-13T08:17:10.125Z,1016.37
2018-12-13T08:18:10.145Z,1016.32
2018-12-13T08:19:10.110Z,1016.34
2018-12-13T08:20:10.093Z,1016.34
2018-12-13T08:21:10.093Z,1016.36
2018-12-13T08:22:10.074Z,1016.40
2018-12-13T08:23:10.085Z,1016.35
2018-12-13T08:24:10.083Z,1016.33
2018-12-13T08:25:10.039Z,1016.30
2018-12-13T08:26:10.030Z,1016.31
2018-12-13T08:27:10.019Z,1016.31
2018-12-13T08:28:10.013Z,1016.30
2018-12-13T08:29:10.020Z,1016.28
2018-12-13T08:30:09.988Z,1016.30
2018-12-13T08:31:09.974Z,1016.31
2018-12-13T08:32:09.972Z,1016.28
2018-12-13T08:33:09.989Z,1016.25
2018-12-13T08:34:09.989Z,1016.23
2018-12-13T08:35:09.946Z,1016.17
2018-12-13T08:36:09.925Z,1016.19
2018-12-13T08:37:09.919Z,1016.22
2018-12-13T08:38:09.946Z,1016.22
2018-12-13T08:39:10.063Z,1016.28
2018-12-13T08:40:09.879Z,1016.30
2018-12-13T08:41:09.873Z,1016.28
2018-12-13T08:42:09.861Z,1016.29
2018-12-13T08:43:09.850Z,1016.28
2018-12-13T08:44:09.891Z,1016.28
2018-12-13T08:45:09.824Z,1016.31
2018-12-13T08:46:09.828Z,1016.32
2018-12-13T08:47:09.804Z,1016.32
2018-12-13T08:48:09.797Z,1016.29
2018-12-13T08:49:09.839Z,1016.26
2018-12-13T08:50:09.772Z,1016.26
2018-12-13T08:51:09.766Z,1016.25
2018-12-13T08:52:09.749Z,1016.26
2018-12-13T08:53:09.749Z,1016.22
2018-12-13T08:54:09.758Z,1016.25
2018-12-13T08:55:09.741Z,1016.24
2018-12-13T08:56:09.787Z,1016.19
2018-12-13T08:57:09.690Z,1016.17
2018-12-13T08:58:09.685Z,1016.18
2018-12-13T08:59:09.729Z,1016.15
2018-12-13T09:00:09.660Z,1016.18
2018-12-13T09:01:09.657Z,1016.19
2018-12-13T09:02:09.637Z,1016.16
2018-12-13T09:03:09.671Z,1016.16
2018-12-13T09:04:09.649Z,1016.18
2018-12-13T09:05:09.631Z,1016.18
2018-12-13T09:06:09.608Z,1016.20
2018-12-13T09:07:09.598Z,1016.22
2018-12-13T09:08:09.592Z,1016.19
2018-12-13T09:09:09.622Z,1016.21
2018-12-13T09:10:10.441Z,1016.24
2018-12-13T09:11:09.539Z,1016.24
2018-12-13T09:12:09.533Z,1016.25
2018-12-13T09:13:09.519Z,1016.30
2018-12-13T09:14:09.506Z,1016.24
2018-12-13T09:15:09.534Z,1016.27
2018-12-13T09:16:09.518Z,1016.31
2018-12-13T09:17:09.471Z,1016.28
2018-12-13T09:18:09.463Z,1016.28
2018-12-13T09:19:09.452Z,1016.27
2018-12-13T09:20:09.440Z,1016.28
2018-12-13T09:21:09.464Z,1016.32
2018-12-13T09:22:09.427Z,1016.31
2018-12-13T09:23:09.421Z,1016.32
2018-12-13T09:24:09.396Z,1016.30
2018-12-13T09:25:09.390Z,1016.31
2018-12-13T09:26:09.401Z,1016.33
2018-12-13T09:27:09.362Z,1016.31
2018-12-13T09:28:09.411Z,1016.32
2018-12-13T09:29:09.344Z,1016.33
2018-12-13T09:30:09.330Z,1016.37
2018-12-13T09:31:09.348Z,1016.34
2018-12-13T09:32:09.307Z,1016.37
2018-12-13T09:33:09.311Z,1016.34
2018-12-13T09:34:09.288Z,1016.37
2018-12-13T09:35:09.281Z,1016.33
2018-12-13T09:36:09.297Z,1016.33
2018-12-13T09:37:09.255Z,1016.31
2018-12-13T09:38:09.247Z,1016.27
2018-12-13T09:39:09.231Z,1016.31
2018-12-13T09:40:09.222Z,1016.28
2018-12-13T09:41:09.231Z,1016.26
2018-12-13T09:42:09.206Z,1016.27
2018-12-13T09:43:09.190Z,1016.31
2018-12-13T09:44:09.174Z,1016.31
2018-12-13T09:45:09.164Z,1016.32
2018-12-13T09:46:09.190Z,1016.30
2018-12-13T09:47:09.144Z,1016.29
2018-12-13T09:48:09.134Z,1016.39
2018-12-13T09:49:09.122Z,1016.34
2018-12-13T09:50:09.111Z,1016.38
2018-12-13T09:51:09.131Z,1016.40
2018-12-13T09:52:09.107Z,1016.43
2018-12-13T09:53:09.082Z,1016.38
2018-12-13T09:54:09.091Z,1016.43
2018-12-13T09:55:09.058Z,1016.43
2018-12-13T09:56:09.048Z,1016.42
2018-12-13T09:57:09.059Z,1016.39
2018-12-13T09:58:09.045Z,1016.40
2018-12-13T09:59:09.019Z,1016.39
2018-12-13T10:00:09.015Z,1016.39
2018-12-13T10:01:08.992Z,1016.38
2018-12-13T10:02:09.007Z,1016.32
2018-12-13T10:03:08.989Z,1016.34
2018-12-13T10:04:08.955Z,1016.35
2018-12-13T10:05:08.950Z,1016.34
2018-12-13T10:06:08.931Z,1016.32
2018-12-13T10:07:08.966Z,1016.29
2018-12-13T10:08:08.916Z,1016.27
2018-12-13T10:09:08.903Z,1016.27
2018-12-13T10:10:08.894Z,1016.27
2018-12-13T10:11:08.885Z,1016.29
2018-12-13T10:12:08.913Z,1016.32
2018-12-13T10:13:08.853Z,1016.19
2018-12-13T10:14:08.846Z,1016.23
2018-12-13T10:15:08.843Z,1016.23
2018-12-13T10:16:08.841Z,1016.21
2018-12-13T10:17:08.875Z,1016.23
2018-12-13T10:18:08.825Z,1016.24
2018-12-13T10:19:08.794Z,1016.26
2018-12-13T10:20:08.783Z,1016.17
2018-12-13T10:21:08.800Z,1016.16
2018-12-13T10:22:11.629Z,1016.17
2018-12-13T10:23:08.775Z,1016.14
2018-12-13T10:24:08.733Z,1016.15
2018-12-13T10:25:08.731Z,1016.16
2018-12-13T10:26:08.710Z,1016.18
2018-12-13T10:27:08.704Z,1016.26
2018-12-13T10:28:08.717Z,1016.16
2018-12-13T10:29:08.704Z,1016.19
2018-12-13T10:30:08.663Z,1016.19
2018-12-13T10:31:08.663Z,1016.18
2018-12-13T10:32:08.656Z,1016.20
2018-12-13T10:33:08.637Z,1016.19
2018-12-13T10:34:08.822Z,1016.25
2018-12-13T10:35:11.514Z,1016.19
2018-12-13T10:36:08.597Z,1016.18
2018-12-13T10:37:08.597Z,1016.18
2018-12-13T10:38:08.584Z,1016.17
2018-12-13T10:39:08.595Z,1016.14
2018-12-13T10:40:08.563Z,1016.15
2018-12-13T10:41:08.563Z,1016.17
2018-12-13T10:42:08.532Z,1016.09
2018-12-13T10:43:08.523Z,1016.09
2018-12-13T10:44:08.545Z,1016.07
2018-12-13T10:45:08.504Z,1016.08
2018-12-13T10:46:08.505Z,1016.05
2018-12-13T10:47:08.476Z,1016.03
2018-12-13T10:48:08.484Z,1015.98
2018-12-13T10:49:08.490Z,1016.00
2018-12-13T10:50:08.471Z,1016.00
2018-12-13T10:51:08.435Z,1015.96
2018-12-13T10:52:08.427Z,1015.99
2018-12-13T10:53:08.410Z,1015.95
2018-12-13T10:54:08.398Z,1015.95
2018-12-13T10:55:08.427Z,1015.92
2018-12-13T10:56:08.379Z,1015.94
2018-12-13T10:57:08.366Z,1015.92
2018-12-13T10:58:08.353Z,1015.91
2018-12-13T10:59:08.343Z,1015.91
2018-12-13T11:00:08.361Z,1015.92
2018-12-13T11:01:08.324Z,1015.87
2018-12-13T11:02:08.322Z,1015.94
2018-12-13T11:03:08.301Z,1015.89
2018-12-13T11:04:08.285Z,1015.87
2018-12-13T11:05:08.328Z,1015.92
2018-12-13T11:06:08.291Z,1015.87
2018-12-13T11:07:08.271Z,1015.93
2018-12-13T11:08:08.243Z,1015.90
2018-12-13T11:09:08.236Z,1015.91
2018-12-13T11:10:08.244Z,1015.96
2018-12-13T11:11:08.237Z,1015.93
2018-12-13T11:12:08.202Z,1015.87
2018-12-13T11:13:08.196Z,1015.85
2018-12-13T11:14:08.188Z,1015.85
2018-12-13T11:15:08.169Z,1015.90
2018-12-13T11:16:08.182Z,1015.77
2018-12-13T11:17:08.144Z,1015.74
2018-12-13T11:18:08.137Z,1015.76
2018-12-13T11:19:08.132Z,1015.76
2018-12-13T11:20:08.115Z,1015.71
2018-12-13T11:21:08.123Z,1015.70
2018-12-13T11:22:08.087Z,1015.74
2018-12-13T11:23:08.078Z,1015.72
2018-12-13T11:24:08.088Z,1015.72
2018-12-13T11:25:08.052Z,1015.75
2018-12-13T11:26:08.076Z,1015.79
2018-12-13T11:27:08.062Z,1015.79
2018-12-13T11:28:08.020Z,1015.73
2018-12-13T11:29:08.023Z,1015.77
2018-12-13T11:30:08.014Z,1015.78
2018-12-13T11:31:08.024Z,1015.74
2018-12-13T11:32:07.999Z,1015.69
2018-12-13T11:33:07.969Z,1015.71
2018-12-13T11:34:07.960Z,1015.68
2018-12-13T11:35:07.944Z,1015.64
2018-12-13T11:36:07.957Z,1015.69
2018-12-13T11:37:07.953Z,1015.72
2018-12-13T11:38:07.913Z,1015.64
2018-12-13T11:39:07.901Z,1015.67
2018-12-13T11:40:07.887Z,1015.62
2018-12-13T11:41:07.908Z,1015.66
2018-12-13T11:42:07.907Z,1015.67
2018-12-13T11:43:07.858Z,1015.62
2018-12-13T11:44:07.959Z,1015.61
2018-12-13T11:45:07.833Z,1015.55
2018-12-13T11:46:07.821Z,1015.52
2018-12-13T11:47:07.844Z,1015.50
2018-12-13T11:48:07.802Z,1015.45
2018-12-13T11:49:12.092Z,1015.50
2018-12-13T11:50:07.796Z,1015.46
2018-12-13T11:51:07.771Z,1015.45
2018-12-13T11:52:07.788Z,1015.46
2018-12-13T11:53:07.761Z,1015.46
2018-12-13T11:54:07.736Z,1015.42
2018-12-13T11:55:07.724Z,1015.38
2018-12-13T11:56:07.709Z,1015.36
2018-12-13T11:57:07.697Z,1015.37
2018-12-13T11:58:07.724Z,1015.24
2018-12-13T11:59:07.680Z,1015.26
2018-12-13T12:00:07.679Z,1015.23
2018-12-13T12:01:07.706Z,1015.20
2018-12-13T12:02:07.647Z,1015.25
2018-12-13T12:03:07.658Z,1015.22
2018-12-13T12:04:07.625Z,1015.21
2018-12-13T12:05:07.614Z,1015.17